Station Historical Data
Daily Summary for June 2, 2017 Units:  English    Metric   Both
« Previous Day
Next Day »
Daily Weekly Monthly Yearly Custom
  High: Low: Average:
Temperature: 67.2 °F 45.5 °F 57.6 °F
Dew Point: 49.7 °F 38.8 °F 44.8 °F
Humidity: 88% 38% 65%
Wind Speed: 14.0mph 0.0mph 3.5mph
Wind Gust: 22.0mph - -
Wind- - West
Pressure: 30.06 in 29.95 in -
Precipitation: 0.00 in    
Historical Graphs
 
 
Tabular Data for June 2, 2017
Time Temperature Dew Point Pressure Wind Wind Speed Wind Gust Humidity Rainfall Rate (Hourly)
00:04 54.2 °F 47.5 °F 29.98 in Calm     78% 0.00 in
00:09 54.1 °F 47.7 °F 29.98 in Calm     79% 0.00 in
00:14 53.6 °F 47.2 °F 29.98 in Calm     79% 0.00 in
00:19 53.2 °F 47.2 °F 29.98 in Calm     80% 0.00 in
00:24 52.9 °F 46.9 °F 29.98 in Calm     80% 0.00 in
00:29 52.4 °F 46.7 °F 29.98 in Calm     81% 0.00 in
00:34 52.1 °F 46.4 °F 29.98 in Calm     81% 0.00 in
00:39 52.3 °F 46.6 °F 29.97 in Calm     81% 0.00 in
00:44 52.3 °F 47.0 °F 29.97 in Calm     82% 0.00 in
00:49 52.1 °F 46.4 °F 29.97 in Calm     81% 0.00 in
00:54 52.0 °F 46.7 °F 29.97 in Calm     82% 0.00 in
00:59 51.7 °F 46.1 °F 29.97 in Calm     81% 0.00 in
01:04 51.4 °F 46.1 °F 29.97 in Calm     82% 0.00 in
01:09 50.9 °F 45.9 °F 29.97 in Calm     83% 0.00 in
01:14 50.7 °F 46.0 °F 29.97 in Calm     84% 0.00 in
01:19 50.5 °F 45.8 °F 29.97 in Calm     84% 0.00 in
01:24 50.5 °F 46.2 °F 29.97 in Calm     85% 0.00 in
01:29 50.0 °F 45.7 °F 29.97 in Calm     85% 0.00 in
01:34 49.9 °F 45.9 °F 29.97 in Calm     86% 0.00 in
01:39 49.9 °F 45.9 °F 29.97 in Calm     86% 0.00 in
01:44 50.2 °F 46.2 °F 29.97 in Calm     86% 0.00 in
01:49 50.4 °F 46.4 °F 29.97 in Calm     86% 0.00 in
01:54 50.2 °F 46.2 °F 29.97 in Calm     86% 0.00 in
01:59 50.0 °F 46.0 °F 29.97 in Calm     86% 0.00 in
02:04 49.8 °F 45.8 °F 29.96 in Calm   1.0 mph 86% 0.00 in
02:09 49.5 °F 45.5 °F 29.96 in Calm     86% 0.00 in
02:14 49.2 °F 45.2 °F 29.96 in Calm     86% 0.00 in
02:19 49.1 °F 45.4 °F 29.96 in Calm     87% 0.00 in
02:24 49.2 °F 45.2 °F 29.96 in Calm   2.0 mph 86% 0.00 in
02:29 49.4 °F 45.1 °F 29.96 in Calm   2.0 mph 85% 0.00 in
02:34 49.7 °F 45.1 °F 29.96 in WSW 1.0 mph 4.0 mph 84% 0.00 in
02:39 49.8 °F 44.8 °F 29.96 in WSW 1.0 mph 4.0 mph 83% 0.00 in
02:44 49.7 °F 44.7 °F 29.96 in Calm   3.0 mph 83% 0.00 in
02:49 49.6 °F 44.6 °F 29.96 in SW 1.0 mph 3.0 mph 83% 0.00 in
02:54 49.4 °F 44.5 °F 29.96 in Calm   2.0 mph 83% 0.00 in
02:59 49.3 °F 44.4 °F 29.96 in Calm   1.0 mph 83% 0.00 in
03:04 49.0 °F 44.1 °F 29.96 in Calm     83% 0.00 in
03:09 48.8 °F 43.9 °F 29.95 in Calm     83% 0.00 in
03:14 48.5 °F 43.9 °F 29.96 in Calm     84% 0.00 in
03:19 48.3 °F 43.7 °F 29.96 in Calm     84% 0.00 in
03:24 47.9 °F 43.3 °F 29.96 in Calm     84% 0.00 in
03:29 47.9 °F 43.6 °F 29.96 in Calm     85% 0.00 in
03:34 48.0 °F 43.7 °F 29.96 in Calm     85% 0.00 in
03:39 47.7 °F 43.4 °F 29.96 in Calm     85% 0.00 in
03:44 47.5 °F 43.2 °F 29.95 in Calm     85% 0.00 in
03:49 47.4 °F 43.1 °F 29.96 in Calm     85% 0.00 in
03:54 47.3 °F 43.0 °F 29.96 in Calm     85% 0.00 in
03:59 47.2 °F 42.9 °F 29.96 in Calm     85% 0.00 in
04:04 47.1 °F 43.1 °F 29.96 in Calm     86% 0.00 in
04:09 46.9 °F 42.9 °F 29.96 in Calm     86% 0.00 in
04:14 46.9 °F 42.9 °F 29.95 in Calm   2.0 mph 86% 0.00 in
04:19 46.9 °F 42.9 °F 29.96 in Calm   1.0 mph 86% 0.00 in
04:24 46.8 °F 42.8 °F 29.95 in Calm   1.0 mph 86% 0.00 in
04:29 46.6 °F 42.6 °F 29.95 in Calm     86% 0.00 in
04:34 46.5 °F 42.5 °F 29.95 in Calm     86% 0.00 in
04:39 46.6 °F 42.6 °F 29.95 in Calm     86% 0.00 in
04:44 46.5 °F 42.5 °F 29.95 in Calm     86% 0.00 in
04:49 46.3 °F 42.3 °F 29.96 in Calm     86% 0.00 in
04:54 46.2 °F 42.5 °F 29.96 in Calm     87% 0.00 in
04:59 46.1 °F 42.4 °F 29.96 in Calm     87% 0.00 in
05:04 45.9 °F 41.9 °F 29.96 in Calm     86% 0.00 in
05:09 45.8 °F 42.2 °F 29.96 in Calm     87% 0.00 in
05:14 45.8 °F 42.2 °F 29.96 in Calm     87% 0.00 in
05:19 45.6 °F 42.0 °F 29.97 in Calm     87% 0.00 in
05:24 45.6 °F 42.0 °F 29.97 in Calm     87% 0.00 in
05:29 45.5 °F 41.9 °F 29.97 in Calm     87% 0.00 in
05:34 45.6 °F 42.3 °F 29.97 in Calm     88% 0.00 in
05:39 45.8 °F 42.4 °F 29.97 in Calm     88% 0.00 in
05:44 45.6 °F 42.0 °F 29.97 in Calm     87% 0.00 in
05:49 45.6 °F 42.3 °F 29.97 in Calm     88% 0.00 in
05:54 45.8 °F 42.4 °F 29.97 in Calm     88% 0.00 in
05:59 45.7 °F 42.3 °F 29.97 in Calm     88% 0.00 in
06:04 45.9 °F 42.2 °F 29.97 in Calm     87% 0.00 in
06:09 45.7 °F 42.3 °F 29.98 in Calm     88% 0.00 in
06:14 45.9 °F 42.5 °F 29.98 in Calm     88% 0.00 in
06:24 46.8 °F 43.1 °F 29.99 in Calm     87% 0.00 in
06:29 47.0 °F 43.0 °F 29.99 in Calm     86% 0.00 in
06:34 47.3 °F 43.6 °F 29.99 in Calm     87% 0.00 in
06:39 48.0 °F 44.0 °F 29.99 in Calm     86% 0.00 in
06:44 48.9 °F 44.9 °F 30.00 in Calm     86% 0.00 in
06:49 50.0 °F 45.7 °F 30.00 in SW 1.0 mph 2.0 mph 85% 0.00 in
06:54 51.1 °F 46.7 °F 30.00 in WSW 1.0 mph 3.0 mph 85% 0.00 in
06:59 52.1 °F 47.1 °F 30.00 in West 2.0 mph 5.0 mph 83% 0.00 in
07:04 53.3 °F 47.3 °F 30.00 in West 3.0 mph 5.0 mph 80% 0.00 in
07:09 54.0 °F 47.6 °F 30.00 in WNW 2.0 mph 6.0 mph 79% 0.00 in
07:14 54.1 °F 46.7 °F 30.00 in WNW 3.0 mph 9.0 mph 76% 0.00 in
07:19 54.4 °F 47.0 °F 30.00 in WNW 3.0 mph 6.0 mph 76% 0.00 in
07:24 54.7 °F 46.9 °F 30.00 in WNW 1.0 mph 5.0 mph 75% 0.00 in
07:29 54.9 °F 46.0 °F 30.00 in WNW 4.0 mph 9.0 mph 72% 0.00 in
07:34 55.1 °F 45.5 °F 30.00 in WNW 5.0 mph 10.0 mph 70% 0.00 in
07:39 55.5 °F 44.7 °F 30.00 in WNW 5.0 mph 10.0 mph 67% 0.00 in
07:44 56.1 °F 45.3 °F 30.00 in WNW 4.0 mph 8.0 mph 67% 0.00 in
07:49 56.5 °F 43.6 °F 30.00 in WNW 8.0 mph 10.0 mph 62% 0.00 in
07:54 56.7 °F 43.4 °F 30.01 in West 5.0 mph 9.0 mph 61% 0.00 in
07:59 57.0 °F 42.8 °F 30.01 in WNW 2.0 mph 10.0 mph 59% 0.00 in
08:04 57.5 °F 42.4 °F 30.01 in WNW 7.0 mph 9.0 mph 57% 0.00 in
08:09 57.9 °F 42.3 °F 30.02 in WNW 5.0 mph 9.0 mph 56% 0.00 in
08:14 57.9 °F 41.8 °F 30.01 in West 6.0 mph 13.0 mph 55% 0.00 in
08:19 58.2 °F 42.6 °F 30.02 in NW 4.0 mph 11.0 mph 56% 0.00 in
08:24 58.3 °F 41.7 °F 30.02 in West 4.0 mph 10.0 mph 54% 0.00 in
08:29 58.2 °F 42.1 °F 30.02 in NW 3.0 mph 10.0 mph 55% 0.00 in
08:34 58.8 °F 42.7 °F 30.02 in WNW 4.0 mph 11.0 mph 55% 0.00 in
08:39 58.5 °F 41.9 °F 30.03 in WNW 5.0 mph 12.0 mph 54% 0.00 in
08:44 58.5 °F 42.8 °F 30.03 in WNW 6.0 mph 12.0 mph 56% 0.00 in
08:49 59.8 °F 43.6 °F 30.03 in WNW 4.0 mph 10.0 mph 55% 0.00 in
08:54 59.5 °F 41.9 °F 30.03 in WNW 4.0 mph 10.0 mph 52% 0.00 in
08:59 59.4 °F 42.3 °F 30.03 in NW 3.0 mph 13.0 mph 53% 0.00 in
09:04 59.7 °F 41.0 °F 30.03 in NW 7.0 mph 13.0 mph 50% 0.00 in
09:09 60.0 °F 41.3 °F 30.03 in WNW 7.0 mph 9.0 mph 50% 0.00 in
09:14 60.4 °F 41.7 °F 30.03 in WNW 4.0 mph 8.0 mph 50% 0.00 in
09:19 60.4 °F 42.2 °F 30.03 in North 5.0 mph 8.0 mph 51% 0.00 in
09:24 60.1 °F 41.9 °F 30.03 in WNW 4.0 mph 9.0 mph 51% 0.00 in
09:29 60.8 °F 41.0 °F 30.03 in NNE 3.0 mph 9.0 mph 48% 0.00 in
09:34 61.6 °F 39.5 °F 30.03 in NW 3.0 mph 9.0 mph 44% 0.00 in
09:39 61.2 °F 40.8 °F 30.04 in NW 4.0 mph 9.0 mph 47% 0.00 in
09:44 61.0 °F 38.9 °F 30.04 in NW 5.0 mph 9.0 mph 44% 0.00 in
09:49 61.3 °F 40.3 °F 30.04 in NW 5.0 mph 9.0 mph 46% 0.00 in
09:54 61.3 °F 41.4 °F 30.04 in WNW 5.0 mph 11.0 mph 48% 0.00 in
09:59 61.4 °F 42.1 °F 30.04 in NW 5.0 mph 11.0 mph 49% 0.00 in
10:04 61.7 °F 41.8 °F 30.04 in NW 4.0 mph 8.0 mph 48% 0.00 in
10:09 61.5 °F 42.2 °F 30.04 in WNW 5.0 mph 7.0 mph 49% 0.00 in
10:14 61.8 °F 45.5 °F 30.04 in NW 3.0 mph 7.0 mph 55% 0.00 in
10:19 62.4 °F 43.5 °F 30.04 in NW 3.0 mph 9.0 mph 50% 0.00 in
10:24 61.9 °F 43.6 °F 30.04 in NW 8.0 mph 9.0 mph 51% 0.00 in
10:29 62.7 °F 43.3 °F 30.04 in NNW 6.0 mph 9.0 mph 49% 0.00 in
10:34 62.4 °F 41.9 °F 30.04 in NW 4.0 mph 9.0 mph 47% 0.00 in
10:39 62.5 °F 43.1 °F 30.04 in NNW 4.0 mph 9.0 mph 49% 0.00 in
10:44 63.2 °F 42.6 °F 30.04 in NNW 4.0 mph 8.0 mph 47% 0.00 in
10:49 63.5 °F 44.0 °F 30.04 in NNW 3.0 mph 9.0 mph 49% 0.00 in
10:54 63.4 °F 43.9 °F 30.04 in NW 4.0 mph 6.0 mph 49% 0.00 in
10:59 64.3 °F 44.2 °F 30.04 in WNW 2.0 mph 9.0 mph 48% 0.00 in
11:04 63.7 °F 43.1 °F 30.04 in NW 3.0 mph 11.0 mph 47% 0.00 in
11:09 64.0 °F 42.8 °F 30.05 in NNW 4.0 mph 11.0 mph 46% 0.00 in
11:19 64.1 °F 43.4 °F 30.04 in NNW 3.0 mph 9.0 mph 47% 0.00 in
11:24 64.5 °F 41.5 °F 30.05 in NW 3.0 mph 10.0 mph 43% 0.00 in
11:29 63.8 °F 42.6 °F 30.05 in NNW 3.0 mph 10.0 mph 46% 0.00 in
11:34 64.3 °F 42.5 °F 30.05 in WNW 1.0 mph 7.0 mph 45% 0.00 in
11:39 65.3 °F 42.2 °F 30.05 in WNW 4.0 mph 12.0 mph 43% 0.00 in
11:44 65.2 °F 42.7 °F 30.05 in WNW 5.0 mph 13.0 mph 44% 0.00 in
11:49 64.4 °F 42.0 °F 30.05 in WNW 8.0 mph 12.0 mph 44% 0.00 in
11:54 64.1 °F 40.5 °F 30.05 in NW 4.0 mph 11.0 mph 42% 0.00 in
11:59 64.8 °F 44.1 °F 30.05 in NW 5.0 mph 11.0 mph 47% 0.00 in
12:04 65.8 °F 43.9 °F 30.05 in NNW 5.0 mph 11.0 mph 45% 0.00 in
12:09 65.5 °F 43.0 °F 30.05 in NW 5.0 mph 11.0 mph 44% 0.00 in
12:14 65.2 °F 42.1 °F 30.05 in WNW 6.0 mph 11.0 mph 43% 0.00 in
12:19 65.4 °F 42.9 °F 30.05 in WNW 6.0 mph 11.0 mph 44% 0.00 in
12:24 65.4 °F 41.7 °F 30.05 in WNW 7.0 mph 15.0 mph 42% 0.00 in
12:29 64.8 °F 39.9 °F 30.05 in NW 9.0 mph 11.0 mph 40% 0.00 in
12:34 65.2 °F 44.5 °F 30.05 in NW 6.0 mph 11.0 mph 47% 0.00 in
12:39 65.6 °F 39.3 °F 30.05 in WNW 6.0 mph 16.0 mph 38% 0.00 in
12:44 65.0 °F 38.8 °F 30.06 in WNW 10.0 mph 16.0 mph 38% 0.00 in
12:49 65.1 °F 39.5 °F 30.05 in North 7.0 mph 13.0 mph 39% 0.00 in
12:54 64.7 °F 39.8 °F 30.05 in North 4.0 mph 15.0 mph 40% 0.00 in
12:59 65.4 °F 40.4 °F 30.05 in NW 3.0 mph 14.0 mph 40% 0.00 in
13:04 65.9 °F 43.4 °F 30.05 in NNE 4.0 mph 9.0 mph 44% 0.00 in
13:09 65.6 °F 40.0 °F 30.04 in NNW 4.0 mph 10.0 mph 39% 0.00 in
13:14 66.2 °F 41.2 °F 30.05 in NW 5.0 mph 14.0 mph 40% 0.00 in
13:19 66.2 °F 43.6 °F 30.04 in NW 6.0 mph 14.0 mph 44% 0.00 in
13:24 67.1 °F 43.2 °F 30.04 in WNW 5.0 mph 13.0 mph 42% 0.00 in
13:29 66.7 °F 41.6 °F 30.04 in WNW 5.0 mph 13.0 mph 40% 0.00 in
13:34 66.5 °F 41.4 °F 30.04 in North 3.0 mph 11.0 mph 40% 0.00 in
13:39 67.2 °F 42.7 °F 30.04 in NW 6.0 mph 16.0 mph 41% 0.00 in
13:44 65.8 °F 43.3 °F 30.04 in WNW 7.0 mph 16.0 mph 44% 0.00 in
13:49 64.7 °F 44.5 °F 30.04 in West 6.0 mph 12.0 mph 48% 0.00 in
13:54 63.6 °F 44.1 °F 30.04 in WSW 5.0 mph 11.0 mph 49% 0.00 in
13:59 64.8 °F 44.6 °F 30.04 in SW 12.0 mph 17.0 mph 48% 0.00 in
14:04 65.0 °F 44.3 °F 30.04 in SSW 6.0 mph 13.0 mph 47% 0.00 in
14:09 65.0 °F 43.7 °F 30.04 in SW 7.0 mph 13.0 mph 46% 0.00 in
14:14 65.7 °F 44.3 °F 30.04 in WSW 10.0 mph 16.0 mph 46% 0.00 in
14:19 64.8 °F 43.5 °F 30.04 in WSW 7.0 mph 16.0 mph 46% 0.00 in
14:24 64.1 °F 45.6 °F 30.03 in SW 7.0 mph 14.0 mph 51% 0.00 in
14:29 64.7 °F 45.1 °F 30.03 in SW 7.0 mph 13.0 mph 49% 0.00 in
14:34 65.8 °F 45.0 °F 30.03 in WSW 7.0 mph 13.0 mph 47% 0.00 in
14:39 66.4 °F 46.7 °F 30.03 in SW 7.0 mph 13.0 mph 49% 0.00 in
14:44 66.4 °F 46.1 °F 30.03 in SW 12.0 mph 14.0 mph 48% 0.00 in
14:49 66.0 °F 47.9 °F 30.03 in WSW 7.0 mph 17.0 mph 52% 0.00 in
14:54 65.5 °F 46.4 °F 30.03 in SW 14.0 mph 17.0 mph 50% 0.00 in
14:59 65.8 °F 46.6 °F 30.03 in SW 14.0 mph 18.0 mph 50% 0.00 in
15:04 65.5 °F 45.8 °F 30.03 in SW 4.0 mph 15.0 mph 49% 0.00 in
15:09 65.1 °F 46.0 °F 30.03 in SW 9.0 mph 16.0 mph 50% 0.00 in
15:14 65.4 °F 47.3 °F 30.03 in SW 7.0 mph 16.0 mph 52% 0.00 in
15:19 65.2 °F 46.1 °F 30.03 in SW 7.0 mph 15.0 mph 50% 0.00 in
15:24 65.5 °F 45.3 °F 30.03 in WSW 7.0 mph 15.0 mph 48% 0.00 in
15:29 65.2 °F 46.6 °F 30.03 in West 12.0 mph 13.0 mph 51% 0.00 in
15:34 65.2 °F 46.6 °F 30.03 in South 8.0 mph 15.0 mph 51% 0.00 in
15:39 64.7 °F 46.1 °F 30.03 in SSW 3.0 mph 13.0 mph 51% 0.00 in
15:44 65.4 °F 45.2 °F 30.03 in SW 7.0 mph 17.0 mph 48% 0.00 in
15:49 64.5 °F 44.9 °F 30.03 in WSW 7.0 mph 17.0 mph 49% 0.00 in
15:54 64.7 °F 45.1 °F 30.02 in SSW 8.0 mph 13.0 mph 49% 0.00 in
15:59 64.8 °F 44.1 °F 30.02 in WNW 7.0 mph 16.0 mph 47% 0.00 in
16:04 64.9 °F 45.3 °F 30.02 in SSW 10.0 mph 16.0 mph 49% 0.00 in
16:09 64.9 °F 43.6 °F 30.02 in SW 7.0 mph 14.0 mph 46% 0.00 in
16:14 64.9 °F 45.3 °F 30.02 in WSW 8.0 mph 14.0 mph 49% 0.00 in
16:19 64.9 °F 46.3 °F 30.02 in WSW 7.0 mph 14.0 mph 51% 0.00 in
16:24 64.4 °F 44.3 °F 30.02 in SSW 5.0 mph 18.0 mph 48% 0.00 in
16:29 64.1 °F 45.1 °F 30.02 in WNW 10.0 mph 14.0 mph 50% 0.00 in
16:34 64.1 °F 45.1 °F 30.01 in WSW 9.0 mph 18.0 mph 50% 0.00 in
16:39 64.0 °F 44.4 °F 30.01 in SSW 7.0 mph 17.0 mph 49% 0.00 in
16:44 63.9 °F 45.9 °F 30.02 in WSW 9.0 mph 17.0 mph 52% 0.00 in
16:49 64.7 °F 46.1 °F 30.01 in WSW 8.0 mph 16.0 mph 51% 0.00 in
16:54 64.2 °F 46.2 °F 30.01 in WSW 7.0 mph 15.0 mph 52% 0.00 in
16:59 64.5 °F 46.0 °F 30.01 in WSW 7.0 mph 15.0 mph 51% 0.00 in
17:04 64.4 °F 45.3 °F 30.01 in WSW 7.0 mph 22.0 mph 50% 0.00 in
17:09 63.7 °F 44.7 °F 30.01 in SW 6.0 mph 18.0 mph 50% 0.00 in
17:14 63.3 °F 44.3 °F 30.01 in WSW 9.0 mph 18.0 mph 50% 0.00 in
17:19 63.5 °F 45.6 °F 30.01 in SW 11.0 mph 16.0 mph 52% 0.00 in
17:24 63.6 °F 45.1 °F 30.01 in West 6.0 mph 20.0 mph 51% 0.00 in
17:29 63.9 °F 45.4 °F 30.01 in SSW 7.0 mph 12.0 mph 51% 0.00 in
17:34 63.6 °F 45.6 °F 30.01 in South 3.0 mph 19.0 mph 52% 0.00 in
17:39 63.4 °F 44.9 °F 30.01 in WSW 9.0 mph 19.0 mph 51% 0.00 in
17:44 63.3 °F 45.4 °F 30.01 in WSW 8.0 mph 15.0 mph 52% 0.00 in
17:49 63.6 °F 46.6 °F 30.01 in WSW 7.0 mph 15.0 mph 54% 0.00 in
17:54 63.6 °F 44.6 °F 30.01 in WSW 7.0 mph 16.0 mph 50% 0.00 in
17:59 63.3 °F 44.3 °F 30.01 in WNW 5.0 mph 14.0 mph 50% 0.00 in
18:04 63.3 °F 43.8 °F 30.00 in SW 11.0 mph 16.0 mph 49% 0.00 in
18:09 63.2 °F 44.8 °F 30.00 in WSW 8.0 mph 16.0 mph 51% 0.00 in
18:14 63.2 °F 43.7 °F 30.00 in WSW 8.0 mph 17.0 mph 49% 0.00 in
18:19 63.2 °F 43.7 °F 30.00 in WSW 8.0 mph 17.0 mph 49% 0.00 in
18:24 62.9 °F 44.5 °F 30.00 in WSW 7.0 mph 17.0 mph 51% 0.00 in
18:29 62.9 °F 44.0 °F 30.00 in WSW 7.0 mph 16.0 mph 50% 0.00 in
18:34 62.8 °F 43.3 °F 30.00 in West 7.0 mph 17.0 mph 49% 0.00 in
18:39 62.8 °F 43.9 °F 30.00 in WSW 5.0 mph 14.0 mph 50% 0.00 in
18:44 62.7 °F 44.3 °F 30.00 in WSW 7.0 mph 16.0 mph 51% 0.00 in
18:49 62.6 °F 43.7 °F 30.00 in WSW 8.0 mph 19.0 mph 50% 0.00 in
18:54 62.6 °F 43.2 °F 30.00 in West 4.0 mph 15.0 mph 49% 0.00 in
18:59 62.4 °F 43.5 °F 30.00 in SW 4.0 mph 14.0 mph 50% 0.00 in
19:04 62.2 °F 44.3 °F 29.99 in West 6.0 mph 16.0 mph 52% 0.00 in
19:09 62.0 °F 44.7 °F 30.00 in SW 4.0 mph 11.0 mph 53% 0.00 in
19:14 61.6 °F 44.8 °F 30.00 in WSW 7.0 mph 13.0 mph 54% 0.00 in
19:19 61.3 °F 45.0 °F 29.99 in WSW 6.0 mph 14.0 mph 55% 0.00 in
19:24 61.0 °F 45.7 °F 29.99 in WSW 6.0 mph 14.0 mph 57% 0.00 in
19:29 60.8 °F 45.9 °F 29.99 in WSW 5.0 mph 13.0 mph 58% 0.00 in
19:34 60.6 °F 46.2 °F 30.00 in WSW 13.0 mph 13.0 mph 59% 0.00 in
19:39 60.3 °F 46.4 °F 30.00 in WSW 10.0 mph 17.0 mph 60% 0.00 in
19:44 60.0 °F 46.5 °F 30.00 in WSW 7.0 mph 17.0 mph 61% 0.00 in
19:49 59.8 °F 47.2 °F 29.99 in WSW 6.0 mph 12.0 mph 63% 0.00 in
19:54 59.9 °F 47.3 °F 29.99 in WSW 5.0 mph 10.0 mph 63% 0.00 in
19:59 59.8 °F 47.6 °F 30.00 in WSW 5.0 mph 11.0 mph 64% 0.00 in
20:04 59.7 °F 47.9 °F 30.00 in WSW 5.0 mph 11.0 mph 65% 0.00 in
20:09 59.6 °F 48.2 °F 29.99 in WNW 3.0 mph 11.0 mph 66% 0.00 in
20:14 59.4 °F 48.4 °F 30.00 in SW 5.0 mph 9.0 mph 67% 0.00 in
20:19 59.4 °F 48.8 °F 29.99 in WSW 5.0 mph 10.0 mph 68% 0.00 in
20:24 59.2 °F 49.0 °F 29.99 in West 4.0 mph 12.0 mph 69% 0.00 in
20:29 58.9 °F 49.1 °F 29.99 in WNW 5.0 mph 10.0 mph 70% 0.00 in
20:34 58.7 °F 48.9 °F 29.99 in WSW 3.0 mph 10.0 mph 70% 0.00 in
20:39 58.6 °F 49.2 °F 29.99 in SW 3.0 mph 7.0 mph 71% 0.00 in
20:44 58.7 °F 49.3 °F 29.99 in WSW 4.0 mph 10.0 mph 71% 0.00 in
20:49 58.6 °F 49.6 °F 29.99 in WSW 4.0 mph 10.0 mph 72% 0.00 in
20:54 58.5 °F 49.5 °F 29.99 in WSW 3.0 mph 8.0 mph 72% 0.00 in
20:59 58.3 °F 49.7 °F 29.99 in WSW 3.0 mph 8.0 mph 73% 0.00 in
21:04 58.2 °F 49.6 °F 29.99 in WSW 3.0 mph 5.0 mph 73% 0.00 in
21:09 57.9 °F 49.3 °F 29.99 in WSW 2.0 mph 5.0 mph 73% 0.00 in
21:14 57.7 °F 49.5 °F 29.99 in WSW 1.0 mph 3.0 mph 74% 0.00 in
21:19 57.4 °F 49.2 °F 29.99 in WSW 1.0 mph 3.0 mph 74% 0.00 in
21:24 57.2 °F 49.3 °F 29.99 in Calm   3.0 mph 75% 0.00 in
21:29 57.2 °F 49.3 °F 29.99 in SW 2.0 mph 4.0 mph 75% 0.00 in
21:34 57.1 °F 49.2 °F 29.99 in WSW 1.0 mph 3.0 mph 75% 0.00 in
21:39 57.1 °F 49.2 °F 29.99 in WSW 2.0 mph 4.0 mph 75% 0.00 in
21:44 57.2 °F 49.3 °F 29.99 in WNW 1.0 mph 4.0 mph 75% 0.00 in
21:49 57.3 °F 49.4 °F 30.00 in WNW 2.0 mph 3.0 mph 75% 0.00 in
21:54 57.3 °F 49.4 °F 30.00 in WNW 1.0 mph 3.0 mph 75% 0.00 in
21:59 57.1 °F 49.2 °F 29.99 in WNW 1.0 mph 3.0 mph 75% 0.00 in
22:04 56.8 °F 49.0 °F 29.99 in Calm   2.0 mph 75% 0.00 in
22:09 56.6 °F 48.8 °F 29.99 in Calm   2.0 mph 75% 0.00 in
22:14 56.4 °F 48.6 °F 29.99 in Calm     75% 0.00 in
22:19 56.2 °F 48.7 °F 29.99 in Calm     76% 0.00 in
22:24 56.0 °F 48.5 °F 30.00 in Calm     76% 0.00 in
22:29 55.8 °F 48.3 °F 30.00 in Calm     76% 0.00 in
22:34 55.7 °F 47.9 °F 30.00 in Calm     75% 0.00 in
22:39 55.4 °F 48.0 °F 30.00 in Calm     76% 0.00 in
22:44 55.3 °F 47.9 °F 29.99 in Calm     76% 0.00 in
22:49 55.1 °F 47.7 °F 30.00 in Calm     76% 0.00 in
22:54 55.1 °F 47.7 °F 30.00 in Calm     76% 0.00 in
22:59 54.9 °F 47.8 °F 29.99 in Calm     77% 0.00 in
23:04 54.9 °F 47.8 °F 29.99 in Calm     77% 0.00 in
23:09 54.8 °F 47.7 °F 29.99 in Calm     77% 0.00 in
23:14 54.8 °F 47.7 °F 29.99 in Calm     77% 0.00 in
23:19 54.6 °F 47.5 °F 29.99 in Calm     77% 0.00 in
23:24 54.5 °F 47.4 °F 29.99 in Calm     77% 0.00 in
23:29 54.6 °F 47.5 °F 29.99 in Calm     77% 0.00 in
23:34 54.4 °F 47.3 °F 29.99 in Calm     77% 0.00 in
23:39 54.4 °F 47.3 °F 29.99 in Calm     77% 0.00 in
23:44 54.4 °F 47.0 °F 29.99 in Calm     76% 0.00 in
23:49 54.2 °F 46.8 °F 29.99 in Calm     76% 0.00 in
23:54 53.9 °F 46.9 °F 29.99 in Calm     77% 0.00 in
23:59 53.8 °F 46.8 °F 29.99 in Calm     77% 0.00 in
Buffalo, New York, USA
Compliments of Weather Underground - 2.5 mb